Time;durP1;ratioP1;P1;durP2;ratioP2;P2;SDS_P1;SDS_P2;PMS_P1;PMS_P2;Temp;Humidity;BMP_temperature;BMP_pressure;BME280_temperature;BME280_humidity;BME280_pressure;Samples;Min_cycle;Max_cycle;Signal;HPM_P1;HPM_P2
2023/03/01 00:01:58;;;;;;;13.93;9.32;;;;;;;;;;4993175;28;20247;-44
2023/03/01 00:04:46;;;;;;;13.83;10.83;;;;;;;;;;4993480;28;20217;-43
2023/03/01 00:07:12;;;;;;;17.58;11.73;;;;;;;;;;4988754;28;20818;-43
2023/03/01 00:09:39;;;;;;;14.57;10.43;;;;;;;;;;4991737;28;20180;-42
2023/03/01 00:12:06;;;;;;;13.30;9.60;;;;;;;;;;4992829;28;20731;-43
2023/03/01 00:14:32;;;;;;;24.65;12.13;;;;;;;;;;4993511;28;20181;-43
2023/03/01 00:16:58;;;;;;;17.27;11.38;;;;;;;;;;4993724;28;20173;-42
2023/03/01 00:19:24;;;;;;;18.73;13.33;;;;;;;;;;4993416;28;20256;-43
2023/03/01 00:21:50;;;;;;;21.17;13.05;;;;;;;;;;4992775;28;20439;-44
2023/03/01 00:24:16;;;;;;;25.67;15.40;;;;;;;;;;4993153;28;20208;-43
2023/03/01 00:26:42;;;;;;;19.92;13.43;;;;;;;;;;4993364;28;20919;-44
2023/03/01 00:29:08;;;;;;;13.98;10.55;;;;;;;;;;4992697;28;20184;-42
2023/03/01 00:31:34;;;;;;;23.33;13.30;;;;;;;;;;4991358;28;20267;-43
2023/03/01 00:34:01;;;;;;;14.67;12.00;;;;;;;;;;4992579;28;20515;-43
2023/03/01 00:36:28;;;;;;;21.73;12.77;;;;;;;;;;4993206;28;20427;-44
2023/03/01 00:38:54;;;;;;;13.93;9.73;;;;;;;;;;4993067;28;20181;-44
2023/03/01 00:41:22;;;;;;;14.00;9.63;;;;;;;;;;4991541;28;20882;-45
2023/03/01 00:43:48;;;;;;;22.83;13.38;;;;;;;;;;4991269;28;20455;-44
2023/03/01 00:46:16;;;;;;;21.23;11.70;;;;;;;;;;4991691;28;20219;-44
2023/03/01 00:48:42;;;;;;;18.00;11.70;;;;;;;;;;4991819;28;20172;-44
2023/03/01 00:51:11;;;;;;;18.52;12.52;;;;;;;;;;4991006;28;20280;-44
2023/03/01 00:53:37;;;;;;;16.33;11.23;;;;;;;;;;4992180;28;20192;-44
2023/03/01 00:56:03;;;;;;;23.35;13.82;;;;;;;;;;4993012;28;20173;-44
2023/03/01 00:58:30;;;;;;;34.58;21.33;;;;;;;;;;4992915;28;20673;-44
2023/03/01 01:00:56;;;;;;;16.63;11.48;;;;;;;;;;4992241;28;20201;-44
2023/03/01 01:03:24;;;;;;;12.95;8.98;;;;;;;;;;4993068;28;20251;-44
2023/03/01 01:05:50;;;;;;;10.50;8.85;;;;;;;;;;4993146;28;20208;-44
2023/03/01 01:08:16;;;;;;;13.38;10.10;;;;;;;;;;4992992;28;20235;-44
2023/03/01 01:10:44;;;;;;;10.57;8.90;;;;;;;;;;4992191;28;20189;-44
2023/03/01 01:13:10;;;;;;;15.95;9.07;;;;;;;;;;4985343;28;20424;-44
2023/03/01 01:15:36;;;;;;;14.43;9.17;;;;;;;;;;4993067;28;20172;-44
2023/03/01 01:18:02;;;;;;;14.55;10.25;;;;;;;;;;4992896;28;20412;-44
2023/03/01 01:20:28;;;;;;;24.55;16.70;;;;;;;;;;4992066;28;20958;-44
2023/03/01 01:22:54;;;;;;;16.77;10.77;;;;;;;;;;4992915;28;20295;-44
2023/03/01 01:25:20;;;;;;;18.23;12.50;;;;;;;;;;4993258;28;20405;-44
2023/03/01 01:27:47;;;;;;;22.88;15.40;;;;;;;;;;4992951;28;20761;-44
2023/03/01 01:30:13;;;;;;;12.82;9.65;;;;;;;;;;4992229;28;20176;-43
2023/03/01 01:32:39;;;;;;;11.57;8.95;;;;;;;;;;4993158;28;20290;-44
2023/03/01 01:35:05;;;;;;;22.23;13.00;;;;;;;;;;4993185;28;20220;-44
2023/03/01 01:37:31;;;;;;;19.92;11.50;;;;;;;;;;4993149;28;20192;-44
2023/03/01 01:40:03;;;;;;;15.93;10.30;;;;;;;;;;4992755;28;20181;-44
2023/03/01 01:42:29;;;;;;;16.95;12.05;;;;;;;;;;4992262;28;20710;-44
2023/03/01 01:45:14;;;;;;;22.67;15.13;;;;;;;;;;4991345;28;20272;-44
2023/03/01 01:47:40;;;;;;;31.58;18.98;;;;;;;;;;4992884;28;20423;-44
2023/03/01 01:50:12;;;;;;;21.15;12.90;;;;;;;;;;4992105;28;20184;-43
2023/03/01 01:52:38;;;;;;;21.75;13.32;;;;;;;;;;4992818;28;20271;-44
2023/03/01 01:55:09;;;;;;;28.08;16.65;;;;;;;;;;4993816;28;20192;-44
2023/03/01 01:57:43;;;;;;;14.55;10.70;;;;;;;;;;4997332;28;20177;-44
2023/03/01 02:00:15;;;;;;;13.77;9.63;;;;;;;;;;4996532;28;20187;-44
2023/03/01 02:02:42;;;;;;;13.35;10.57;;;;;;;;;;4995765;28;20220;-44
2023/03/01 02:05:27;;;;;;;21.23;8.30;;;;;;;;;;4992057;28;20173;-44
2023/03/01 02:07:53;;;;;;;13.75;9.35;;;;;;;;;;4996327;28;20227;-44
2023/03/01 02:10:19;;;;;;;12.60;8.80;;;;;;;;;;4995680;28;20591;-44
2023/03/01 02:12:46;;;;;;;14.25;9.73;;;;;;;;;;4996433;28;20200;-45
2023/03/01 02:15:11;;;;;;;15.43;9.35;;;;;;;;;;4996334;28;20235;-45
2023/03/01 02:17:38;;;;;;;14.67;9.43;;;;;;;;;;4996484;28;20193;-44
2023/03/01 02:20:06;;;;;;;13.32;8.00;;;;;;;;;;4996169;28;20411;-44
2023/03/01 02:22:33;;;;;;;12.00;8.23;;;;;;;;;;5001257;28;20263;-46
2023/03/01 02:25:18;;;;;;;16.45;9.95;;;;;;;;;;4996595;28;20184;-44
2023/03/01 02:27:52;;;;;;;13.30;8.82;;;;;;;;;;4996934;28;20177;-44
2023/03/01 02:30:19;;;;;;;15.13;10.00;;;;;;;;;;4995923;28;20649;-44
2023/03/01 02:32:45;;;;;;;13.43;8.98;;;;;;;;;;4996548;28;20197;-44
2023/03/01 02:35:14;;;;;;;12.77;8.20;;;;;;;;;;4996647;28;20207;-44
2023/03/01 02:37:40;;;;;;;15.48;10.10;;;;;;;;;;4996346;28;20426;-43
2023/03/01 02:40:11;;;;;;;11.93;8.50;;;;;;;;;;4995839;28;20193;-43
2023/03/01 02:42:46;;;;;;;11.10;9.35;;;;;;;;;;4996142;28;20204;-45
2023/03/01 02:45:12;;;;;;;16.23;9.75;;;;;;;;;;4988817;28;20656;-44
2023/03/01 02:47:38;;;;;;;19.63;9.30;;;;;;;;;;4996212;28;20181;-44
2023/03/01 02:50:11;;;;;;;11.53;8.33;;;;;;;;;;4995895;28;20419;-44
2023/03/01 02:52:37;;;;;;;14.05;9.82;;;;;;;;;;4996340;28;20432;-44
2023/03/01 02:55:08;;;;;;;15.25;10.15;;;;;;;;;;4996042;28;20606;-44
2023/03/01 02:57:36;;;;;;;12.80;10.25;;;;;;;;;;4996242;28;20181;-44
2023/03/01 03:00:08;;;;;;;13.80;9.05;;;;;;;;;;4995768;28;20271;-44
2023/03/01 03:02:37;;;;;;;18.10;9.45;;;;;;;;;;4995898;28;20684;-44
2023/03/01 03:05:05;;;;;;;14.88;10.00;;;;;;;;;;4995857;28;20173;-44
2023/03/01 03:07:32;;;;;;;10.80;8.48;;;;;;;;;;4994316;28;20276;-44
2023/03/01 03:09:58;;;;;;;15.73;8.75;;;;;;;;;;4995338;28;20177;-45
2023/03/01 03:12:24;;;;;;;12.10;8.73;;;;;;;;;;4995463;28;20197;-44
2023/03/01 03:14:49;;;;;;;15.15;9.20;;;;;;;;;;4995873;28;20422;-44
2023/03/01 03:17:15;;;;;;;15.50;8.20;;;;;;;;;;4995581;28;20189;-44
2023/03/01 03:19:45;;;;;;;18.33;9.90;;;;;;;;;;4995808;28;20495;-44
2023/03/01 03:22:11;;;;;;;14.02;8.10;;;;;;;;;;4987374;28;20432;-44
2023/03/01 03:24:37;;;;;;;12.07;9.35;;;;;;;;;;4995804;28;20193;-44
2023/03/01 03:27:04;;;;;;;12.75;8.63;;;;;;;;;;4995817;28;20169;-44
2023/03/01 03:29:30;;;;;;;14.02;9.20;;;;;;;;;;4995631;28;20512;-44
2023/03/01 03:31:56;;;;;;;15.67;9.90;;;;;;;;;;4994800;28;20207;-44
2023/03/01 03:34:22;;;;;;;10.00;8.63;;;;;;;;;;4996290;28;20424;-44
2023/03/01 03:36:48;;;;;;;12.50;9.57;;;;;;;;;;4995500;28;20424;-43
2023/03/01 03:39:14;;;;;;;21.77;10.63;;;;;;;;;;4995510;28;20483;-44
2023/03/01 03:41:39;;;;;;;13.40;8.60;;;;;;;;;;4994724;28;20463;-44
2023/03/01 03:44:05;;;;;;;15.53;10.50;;;;;;;;;;4995605;28;20471;-44
2023/03/01 03:46:32;;;;;;;13.23;10.00;;;;;;;;;;4995684;28;20535;-44
2023/03/01 03:48:58;;;;;;;14.52;10.65;;;;;;;;;;4995626;28;20420;-44
2023/03/01 03:51:24;;;;;;;21.63;10.18;;;;;;;;;;4994874;28;20319;-44
2023/03/01 03:53:50;;;;;;;12.23;10.93;;;;;;;;;;4995271;28;20220;-44
2023/03/01 03:56:16;;;;;;;18.70;10.63;;;;;;;;;;4995494;28;20420;-44
2023/03/01 03:58:42;;;;;;;14.98;9.75;;;;;;;;;;4995049;28;20459;-44
2023/03/01 04:01:08;;;;;;;16.80;9.87;;;;;;;;;;4994248;28;20237;-44
2023/03/01 04:03:34;;;;;;;15.88;10.52;;;;;;;;;;4995216;28;20546;-44
2023/03/01 04:06:01;;;;;;;18.10;10.85;;;;;;;;;;4994836;28;20532;-44
2023/03/01 04:08:28;;;;;;;16.38;10.90;;;;;;;;;;4995111;28;20181;-44
2023/03/01 04:10:57;;;;;;;15.15;9.60;;;;;;;;;;4994236;28;20269;-44
2023/03/01 04:13:25;;;;;;;14.95;9.80;;;;;;;;;;4994956;28;20191;-45
2023/03/01 04:15:51;;;;;;;13.75;10.10;;;;;;;;;;4994832;28;20177;-43
2023/03/01 04:18:18;;;;;;;16.08;9.48;;;;;;;;;;4994532;28;20560;-45
2023/03/01 04:20:45;;;;;;;14.52;9.52;;;;;;;;;;4994035;28;20656;-45
2023/03/01 04:23:20;;;;;;;11.57;9.35;;;;;;;;;;4994591;28;20209;-45
2023/03/01 04:25:49;;;;;;;14.57;10.18;;;;;;;;;;4991691;28;20172;-44
2023/03/01 04:28:15;;;;;;;13.88;10.88;;;;;;;;;;4994457;28;20169;-44
2023/03/01 04:30:41;;;;;;;19.20;9.95;;;;;;;;;;4993842;28;20185;-45
2023/03/01 04:33:11;;;;;;;16.00;10.70;;;;;;;;;;4994148;28;20201;-44
2023/03/01 04:35:38;;;;;;;14.27;9.52;;;;;;;;;;4994677;28;20645;-44
2023/03/01 04:38:05;;;;;;;18.55;11.30;;;;;;;;;;4994512;28;20177;-45
2023/03/01 04:40:31;;;;;;;16.40;10.40;;;;;;;;;;4993826;28;20684;-44
2023/03/01 04:42:57;;;;;;;14.27;10.20;;;;;;;;;;4994436;28;20205;-42
2023/03/01 04:45:23;;;;;;;13.98;10.23;;;;;;;;;;4994473;28;20162;-43
2023/03/01 04:47:51;;;;;;;16.67;10.02;;;;;;;;;;4994263;28;20288;-45
2023/03/01 04:50:20;;;;;;;16.38;10.50;;;;;;;;;;4993744;28;20227;-44
2023/03/01 04:52:46;;;;;;;16.38;11.32;;;;;;;;;;4994405;28;20284;-44
2023/03/01 04:55:12;;;;;;;15.15;10.68;;;;;;;;;;4994023;28;20279;-44
2023/03/01 04:57:38;;;;;;;20.05;13.38;;;;;;;;;;4994434;28;20201;-44
2023/03/01 05:00:20;;;;;;;13.60;9.67;;;;;;;;;;4993729;28;20259;-44
2023/03/01 05:02:52;;;;;;;11.80;8.80;;;;;;;;;;4994037;28;20466;-43
2023/03/01 05:05:18;;;;;;;15.27;11.20;;;;;;;;;;4993939;28;20227;-44
2023/03/01 05:07:44;;;;;;;16.45;11.43;;;;;;;;;;4990955;28;20637;-44
2023/03/01 05:10:10;;;;;;;16.70;12.20;;;;;;;;;;4993305;28;20228;-43
2023/03/01 05:12:37;;;;;;;19.98;12.05;;;;;;;;;;4993824;28;20519;-45
2023/03/01 05:15:06;;;;;;;16.85;12.35;;;;;;;;;;4993983;28;20207;-43
2023/03/01 05:17:32;;;;;;;21.20;13.02;;;;;;;;;;4993937;28;20172;-45
2023/03/01 05:19:59;;;;;;;15.20;10.80;;;;;;;;;;4993567;28;20532;-44
2023/03/01 05:22:25;;;;;;;16.55;12.00;;;;;;;;;;4992989;28;20427;-44
2023/03/01 05:24:52;;;;;;;17.33;11.38;;;;;;;;;;4994147;28;20558;-44
2023/03/01 05:27:21;;;;;;;18.58;11.80;;;;;;;;;;4993668;28;20183;-44
2023/03/01 05:29:47;;;;;;;15.43;11.73;;;;;;;;;;4993205;28;20173;-44
2023/03/01 05:32:15;;;;;;;18.73;12.10;;;;;;;;;;4992953;28;20256;-44
2023/03/01 05:34:41;;;;;;;23.13;12.15;;;;;;;;;;4993413;28;20287;-44
2023/03/01 05:37:08;;;;;;;16.48;10.95;;;;;;;;;;4993441;28;20185;-44
2023/03/01 05:39:34;;;;;;;23.50;11.93;;;;;;;;;;4993447;28;20177;-44
2023/03/01 05:42:01;;;;;;;16.92;11.77;;;;;;;;;;4992692;28;20251;-44
2023/03/01 05:44:28;;;;;;;17.83;11.68;;;;;;;;;;4993489;28;20201;-45
2023/03/01 05:46:54;;;;;;;17.63;12.73;;;;;;;;;;4993491;28;20181;-44
2023/03/01 05:49:23;;;;;;;17.27;12.02;;;;;;;;;;4993269;28;20216;-45
2023/03/01 05:51:50;;;;;;;20.20;12.10;;;;;;;;;;4992591;28;20684;-44
2023/03/01 05:54:16;;;;;;;17.17;12.35;;;;;;;;;;4993358;28;20180;-44
2023/03/01 05:56:42;;;;;;;21.27;10.93;;;;;;;;;;4993532;28;20648;-43
2023/03/01 05:59:08;;;;;;;18.13;12.45;;;;;;;;;;4993199;28;20510;-44
2023/03/01 06:01:35;;;;;;;31.92;10.55;;;;;;;;;;4992290;28;20197;-44
2023/03/01 06:04:01;;;;;;;21.40;12.90;;;;;;;;;;4993053;28;20203;-44
2023/03/01 06:06:27;;;;;;;18.08;12.95;;;;;;;;;;4992328;28;20187;-44
2023/03/01 06:08:53;;;;;;;20.33;13.60;;;;;;;;;;4993251;28;20180;-44
2023/03/01 06:11:20;;;;;;;17.10;12.85;;;;;;;;;;4992469;28;20527;-44
2023/03/01 06:13:46;;;;;;;15.85;11.73;;;;;;;;;;4993554;28;20659;-44
2023/03/01 06:16:13;;;;;;;18.83;12.30;;;;;;;;;;4993322;28;20185;-44
2023/03/01 06:18:39;;;;;;;26.38;12.25;;;;;;;;;;4993237;28;20205;-44
2023/03/01 06:21:05;;;;;;;17.33;11.60;;;;;;;;;;4992861;28;20196;-44
2023/03/01 06:23:31;;;;;;;20.60;13.73;;;;;;;;;;4993531;28;20223;-44
2023/03/01 06:25:57;;;;;;;16.38;11.40;;;;;;;;;;4993193;28;20181;-44
2023/03/01 06:28:23;;;;;;;18.33;12.90;;;;;;;;;;4993420;28;20184;-44
2023/03/01 06:30:52;;;;;;;20.50;12.63;;;;;;;;;;4993024;28;20499;-44
2023/03/01 06:33:19;;;;;;;14.38;10.32;;;;;;;;;;4993393;28;20428;-44
2023/03/01 06:35:46;;;;;;;17.92;12.50;;;;;;;;;;4993198;28;20222;-44
2023/03/01 06:38:14;;;;;;;21.63;11.75;;;;;;;;;;4989249;28;20251;-44
2023/03/01 06:40:41;;;;;;;14.77;12.23;;;;;;;;;;4991721;28;20239;-44
2023/03/01 06:43:07;;;;;;;23.58;13.95;;;;;;;;;;4988698;28;20933;-44
2023/03/01 06:45:33;;;;;;;22.20;13.55;;;;;;;;;;4997615;28;20203;-44
2023/03/01 06:48:06;;;;;;;14.63;10.90;;;;;;;;;;4996064;28;20449;-43
2023/03/01 06:50:32;;;;;;;17.80;11.60;;;;;;;;;;4994537;28;20181;-43
2023/03/01 06:52:58;;;;;;;20.20;12.07;;;;;;;;;;4995235;28;20187;-43
2023/03/01 06:55:24;;;;;;;15.38;12.32;;;;;;;;;;4995244;28;20263;-43
2023/03/01 06:57:55;;;;;;;15.35;11.82;;;;;;;;;;4994991;28;20656;-43
2023/03/01 07:00:21;;;;;;;17.70;11.88;;;;;;;;;;4994311;28;20216;-43
2023/03/01 07:02:47;;;;;;;19.58;11.85;;;;;;;;;;4994936;28;20212;-43
2023/03/01 07:05:13;;;;;;;19.33;13.70;;;;;;;;;;4995029;28;20256;-43
2023/03/01 07:07:39;;;;;;;20.90;12.80;;;;;;;;;;4995061;28;20412;-43
2023/03/01 07:10:05;;;;;;;19.10;12.73;;;;;;;;;;4997478;28;20412;-43
2023/03/01 07:12:31;;;;;;;16.88;12.68;;;;;;;;;;4994819;28;20433;-43
2023/03/01 07:14:57;;;;;;;14.77;11.27;;;;;;;;;;4996244;28;20636;-43
2023/03/01 07:17:23;;;;;;;30.77;11.70;;;;;;;;;;4994858;28;20477;-43
2023/03/01 07:19:49;;;;;;;19.60;11.07;;;;;;;;;;4994491;28;20447;-43
2023/03/01 07:22:15;;;;;;;14.73;11.53;;;;;;;;;;4994168;28;20446;-43
2023/03/01 07:24:41;;;;;;;18.60;11.80;;;;;;;;;;4994502;28;20468;-43
2023/03/01 07:27:07;;;;;;;13.73;11.07;;;;;;;;;;4989975;28;20212;-43
2023/03/01 07:29:36;;;;;;;26.20;12.20;;;;;;;;;;4994490;28;20287;-43
2023/03/01 07:32:02;;;;;;;17.10;11.38;;;;;;;;;;4993796;28;20436;-43
2023/03/01 07:34:28;;;;;;;18.37;11.00;;;;;;;;;;4999962;28;20195;-43
2023/03/01 07:36:54;;;;;;;19.03;10.27;;;;;;;;;;4996256;28;20420;-43
2023/03/01 07:39:20;;;;;;;16.55;11.85;;;;;;;;;;4993943;28;20416;-42
2023/03/01 07:41:46;;;;;;;14.77;9.83;;;;;;;;;;4990643;28;20251;-43
2023/03/01 07:44:12;;;;;;;17.92;10.98;;;;;;;;;;4992813;28;20462;-43
2023/03/01 07:46:38;;;;;;;16.70;12.40;;;;;;;;;;4995831;28;20185;-43
2023/03/01 07:49:05;;;;;;;15.67;10.30;;;;;;;;;;4993620;28;20463;-43
2023/03/01 07:51:31;;;;;;;16.05;9.75;;;;;;;;;;4992555;28;20434;-43
2023/03/01 07:53:57;;;;;;;13.23;9.55;;;;;;;;;;4991645;28;20184;-44
2023/03/01 07:56:23;;;;;;;12.63;9.67;;;;;;;;;;4995148;28;20179;-44
2023/03/01 07:58:49;;;;;;;10.60;9.37;;;;;;;;;;4994010;28;20435;-44
2023/03/01 08:01:16;;;;;;;15.90;9.60;;;;;;;;;;4991174;28;20823;-44
2023/03/01 08:03:43;;;;;;;15.27;10.77;;;;;;;;;;4993471;28;20452;-44
2023/03/01 08:06:10;;;;;;;14.93;9.67;;;;;;;;;;4994688;28;20488;-44
2023/03/01 08:08:36;;;;;;;11.87;9.37;;;;;;;;;;4993617;28;20421;-43
2023/03/01 08:11:04;;;;;;;12.80;9.60;;;;;;;;;;4997313;28;20457;-43
2023/03/01 08:13:30;;;;;;;12.00;9.43;;;;;;;;;;4993346;28;20415;-43
2023/03/01 08:16:01;;;;;;;12.10;8.60;;;;;;;;;;4993521;28;20422;-44
2023/03/01 08:18:27;;;;;;;12.87;8.90;;;;;;;;;;4993405;28;20772;-43
2023/03/01 08:20:53;;;;;;;9.30;7.47;;;;;;;;;;4992633;28;20433;-43
2023/03/01 08:23:19;;;;;;;12.83;9.40;;;;;;;;;;4993147;28;20988;-43
2023/03/01 08:25:45;;;;;;;11.07;7.87;;;;;;;;;;4993288;28;20497;-43
2023/03/01 08:28:11;;;;;;;9.60;7.80;;;;;;;;;;4999125;28;20421;-43
2023/03/01 08:30:37;;;;;;;13.13;8.47;;;;;;;;;;4992466;28;20418;-43
2023/03/01 08:33:03;;;;;;;13.70;7.57;;;;;;;;;;4993517;28;20437;-43
2023/03/01 08:35:29;;;;;;;12.33;8.33;;;;;;;;;;4993293;28;20414;-44
2023/03/01 08:37:55;;;;;;;10.67;8.00;;;;;;;;;;4993015;28;20429;-43
2023/03/01 08:40:21;;;;;;;9.13;6.87;;;;;;;;;;4996378;28;20417;-44
2023/03/01 08:42:47;;;;;;;11.10;7.33;;;;;;;;;;4992393;28;20444;-41
2023/03/01 08:45:17;;;;;;;8.73;7.27;;;;;;;;;;4993064;28;20417;-42
2023/03/01 08:47:44;;;;;;;8.87;7.20;;;;;;;;;;4992895;28;20417;-43
2023/03/01 08:50:11;;;;;;;9.40;7.53;;;;;;;;;;4995120;28;20415;-43
2023/03/01 08:52:37;;;;;;;15.27;7.57;;;;;;;;;;4992490;28;20808;-44
2023/03/01 08:55:03;;;;;;;14.80;8.03;;;;;;;;;;4992717;28;20421;-44
2023/03/01 08:57:29;;;;;;;11.40;7.80;;;;;;;;;;4993259;28;20412;-44
2023/03/01 08:59:55;;;;;;;10.73;7.03;;;;;;;;;;4992743;28;20503;-42
2023/03/01 09:02:21;;;;;;;12.67;8.40;;;;;;;;;;4992527;28;20437;-42
2023/03/01 09:04:47;;;;;;;10.50;7.20;;;;;;;;;;4992511;28;20900;-42
2023/03/01 09:07:13;;;;;;;11.00;7.33;;;;;;;;;;4992755;28;20824;-43
2023/03/01 09:09:39;;;;;;;10.20;8.00;;;;;;;;;;4992839;28;20801;-44
2023/03/01 09:12:05;;;;;;;11.00;7.77;;;;;;;;;;4990355;28;20450;-43
2023/03/01 09:14:31;;;;;;;11.97;6.47;;;;;;;;;;4991276;28;20465;-44
2023/03/01 09:16:57;;;;;;;9.43;6.50;;;;;;;;;;4992241;28;20424;-43
2023/03/01 09:19:23;;;;;;;7.53;5.93;;;;;;;;;;4992482;28;20892;-43
2023/03/01 09:21:52;;;;;;;7.80;6.20;;;;;;;;;;4989227;28;20455;-44
2023/03/01 09:24:19;;;;;;;10.77;6.63;;;;;;;;;;4992022;28;20467;-44
2023/03/01 09:26:48;;;;;;;10.37;5.83;;;;;;;;;;4992540;28;20495;-44
2023/03/01 09:29:14;;;;;;;9.90;7.10;;;;;;;;;;4992240;28;20464;-44
2023/03/01 09:31:41;;;;;;;7.23;6.50;;;;;;;;;;4991277;28;20447;-44
2023/03/01 09:34:07;;;;;;;8.60;6.37;;;;;;;;;;4991693;28;20463;-44
2023/03/01 09:36:33;;;;;;;8.97;5.67;;;;;;;;;;4992237;28;20476;-44
2023/03/01 09:39:00;;;;;;;9.70;7.23;;;;;;;;;;4991233;28;20751;-44
2023/03/01 09:41:45;;;;;;;6.73;5.40;;;;;;;;;;4990110;28;20445;-45
2023/03/01 09:44:16;;;;;;;10.17;6.70;;;;;;;;;;4985240;28;20829;-45
2023/03/01 09:46:43;;;;;;;7.37;6.50;;;;;;;;;;4992418;28;20521;-45
2023/03/01 09:49:20;;;;;;;10.10;7.23;;;;;;;;;;4984345;28;20419;-45
2023/03/01 09:51:58;;;;;;;10.23;6.70;;;;;;;;;;4991596;28;20973;-46
2023/03/01 09:54:24;;;;;;;16.27;6.40;;;;;;;;;;4992176;28;20398;-46
2023/03/01 09:57:05;;;;;;;7.80;6.23;;;;;;;;;;4992418;28;20419;-45
2023/03/01 09:59:41;;;;;;;9.53;7.10;;;;;;;;;;4992263;28;20464;-45
2023/03/01 10:02:09;;;;;;;9.00;6.60;;;;;;;;;;4991685;28;20434;-45
2023/03/01 10:05:02;;;;;;;8.47;5.90;;;;;;;;;;4992104;28;20985;-45
2023/03/01 10:07:39;;;;;;;9.80;7.30;;;;;;;;;;4980577;28;20833;-47
2023/03/01 10:10:07;;;;;;;9.87;6.83;;;;;;;;;;4992006;28;20509;-45
2023/03/01 10:12:35;;;;;;;9.57;6.47;;;;;;;;;;4991925;28;20432;-44
2023/03/01 10:15:12;;;;;;;7.30;5.93;;;;;;;;;;4991694;28;20799;-43
2023/03/01 10:17:44;;;;;;;9.97;6.70;;;;;;;;;;4995029;28;20474;-43
2023/03/01 10:20:13;;;;;;;6.93;6.23;;;;;;;;;;4987447;28;20398;-43
2023/03/01 10:22:39;;;;;;;6.70;5.60;;;;;;;;;;4995287;28;20475;-44
2023/03/01 10:25:05;;;;;;;6.23;5.43;;;;;;;;;;4995431;28;20493;-44
2023/03/01 10:27:44;;;;;;;7.33;5.93;;;;;;;;;;4995786;28;20400;-44
2023/03/01 10:30:10;;;;;;;8.73;7.00;;;;;;;;;;4987322;28;20428;-43
2023/03/01 10:32:37;;;;;;;7.17;6.20;;;;;;;;;;4995250;28;20431;-44
2023/03/01 10:35:15;;;;;;;7.30;5.33;;;;;;;;;;4995215;28;20411;-43
2023/03/01 10:37:56;;;;;;;6.60;5.67;;;;;;;;;;4995769;28;20412;-43
2023/03/01 10:40:22;;;;;;;6.20;5.47;;;;;;;;;;4989237;28;20407;-43
2023/03/01 10:42:49;;;;;;;11.27;7.20;;;;;;;;;;4995059;28;20432;-44
2023/03/01 10:45:24;;;;;;;7.87;5.97;;;;;;;;;;4995118;28;20411;-43
2023/03/01 10:48:03;;;;;;;8.20;5.13;;;;;;;;;;4995327;28;20415;-43
2023/03/01 10:50:29;;;;;;;7.50;6.27;;;;;;;;;;4994786;28;20415;-43
2023/03/01 10:53:02;;;;;;;7.20;5.20;;;;;;;;;;4994829;28;20434;-43
2023/03/01 10:55:35;;;;;;;6.73;5.87;;;;;;;;;;4995064;28;20400;-42
2023/03/01 10:58:08;;;;;;;6.63;5.93;;;;;;;;;;4994938;28;20459;-43
2023/03/01 11:00:34;;;;;;;8.67;6.57;;;;;;;;;;4994181;28;20484;-43
2023/03/01 11:03:00;;;;;;;7.87;6.47;;;;;;;;;;4994637;28;21027;-43
2023/03/01 11:05:29;;;;;;;6.77;6.07;;;;;;;;;;4994155;28;20506;-42
2023/03/01 11:07:56;;;;;;;7.60;5.80;;;;;;;;;;4992314;28;20988;-42
2023/03/01 11:10:26;;;;;;;7.40;6.40;;;;;;;;;;4993699;28;20491;-43
2023/03/01 11:12:53;;;;;;;7.17;6.00;;;;;;;;;;4994308;28;20413;-42
2023/03/01 11:15:24;;;;;;;7.83;6.03;;;;;;;;;;4994485;28;20980;-43
2023/03/01 11:17:50;;;;;;;14.10;7.00;;;;;;;;;;4994485;28;20445;-42
2023/03/01 11:20:21;;;;;;;7.33;6.63;;;;;;;;;;4993491;28;20448;-43
2023/03/01 11:22:52;;;;;;;7.17;6.27;;;;;;;;;;4993997;28;20407;-45
2023/03/01 11:25:20;;;;;;;7.53;6.03;;;;;;;;;;4994413;28;20422;-42
2023/03/01 11:27:46;;;;;;;11.97;6.50;;;;;;;;;;4993282;28;20425;-44
2023/03/01 11:30:22;;;;;;;7.60;6.80;;;;;;;;;;4993838;28;20488;-42
2023/03/01 11:32:51;;;;;;;14.33;7.00;;;;;;;;;;4994642;28;20787;-46
2023/03/01 11:35:22;;;;;;;10.87;7.53;;;;;;;;;;4995832;28;20419;-45
2023/03/01 11:37:54;;;;;;;6.83;5.97;;;;;;;;;;4995852;28;20469;-45
2023/03/01 11:40:23;;;;;;;9.20;7.63;;;;;;;;;;5000027;28;20420;-45
2023/03/01 11:42:55;;;;;;;13.03;7.40;;;;;;;;;;4996253;28;20775;-46
2023/03/01 11:45:23;;;;;;;8.67;7.00;;;;;;;;;;4996143;28;20733;-47
2023/03/01 11:48:00;;;;;;;7.00;6.17;;;;;;;;;;4994375;28;20448;-45
2023/03/01 11:50:40;;;;;;;10.33;6.37;;;;;;;;;;4993479;28;20396;-45
2023/03/01 11:53:18;;;;;;;7.93;6.67;;;;;;;;;;4994260;28;20397;-46
2023/03/01 11:55:44;;;;;;;9.10;6.50;;;;;;;;;;4991722;28;20417;-44
2023/03/01 11:58:10;;;;;;;8.20;7.30;;;;;;;;;;4993687;28;20405;-44
2023/03/01 12:00:36;;;;;;;9.53;6.50;;;;;;;;;;4993202;28;20415;-45
2023/03/01 12:03:21;;;;;;;7.23;6.30;;;;;;;;;;4993368;28;20975;-44
2023/03/01 12:06:03;;;;;;;7.67;6.87;;;;;;;;;;4993493;28;20386;-45
2023/03/01 12:08:38;;;;;;;7.33;6.47;;;;;;;;;;4993674;28;20525;-45
2023/03/01 12:11:13;;;;;;;8.23;6.83;;;;;;;;;;4992556;28;20484;-44
2023/03/01 12:13:57;;;;;;;10.20;7.03;;;;;;;;;;4989683;28;20466;-44
2023/03/01 12:16:32;;;;;;;9.93;7.23;;;;;;;;;;4987469;28;20477;-44
2023/03/01 12:19:07;;;;;;;8.60;6.73;;;;;;;;;;4993892;28;20439;-44
2023/03/01 12:21:45;;;;;;;8.60;6.70;;;;;;;;;;4992706;28;20469;-46
2023/03/01 12:24:15;;;;;;;9.10;6.77;;;;;;;;;;4989179;28;20521;-44
2023/03/01 12:26:53;;;;;;;8.03;6.43;;;;;;;;;;4993499;28;20390;-44
2023/03/01 12:29:34;;;;;;;8.37;6.87;;;;;;;;;;4986806;28;20399;-44
2023/03/01 12:32:19;;;;;;;8.07;7.27;;;;;;;;;;4991464;28;20869;-44
2023/03/01 12:34:45;;;;;;;9.43;7.50;;;;;;;;;;4992068;28;20435;-45
2023/03/01 12:37:29;;;;;;;9.77;6.87;;;;;;;;;;4992869;28;20396;-45
2023/03/01 12:40:05;;;;;;;7.67;6.10;;;;;;;;;;4991462;28;20414;-44
2023/03/01 12:42:49;;;;;;;19.00;7.50;;;;;;;;;;4992691;28;20410;-44
2023/03/01 12:45:15;;;;;;;7.43;6.63;;;;;;;;;;4985821;28;20502;-43
2023/03/01 12:47:47;;;;;;;8.17;6.43;;;;;;;;;;4993322;28;20418;-44
2023/03/01 12:50:21;;;;;;;10.23;7.30;;;;;;;;;;4985221;28;20450;-44
2023/03/01 12:52:57;;;;;;;8.40;7.50;;;;;;;;;;4990100;28;20462;-44
2023/03/01 12:55:40;;;;;;;8.70;7.17;;;;;;;;;;4992683;28;20413;-44
2023/03/01 12:58:20;;;;;;;7.20;5.40;;;;;;;;;;4993154;28;20397;-45
2023/03/01 13:00:52;;;;;;;12.60;7.90;;;;;;;;;;4992549;28;20884;-44
2023/03/01 13:03:18;;;;;;;8.70;7.80;;;;;;;;;;4992918;28;20443;-44
2023/03/01 13:05:56;;;;;;;7.93;7.13;;;;;;;;;;4992745;28;20471;-44
2023/03/01 13:08:41;;;;;;;7.47;5.93;;;;;;;;;;4992576;28;20782;-44
2023/03/01 13:11:15;;;;;;;8.70;7.57;;;;;;;;;;4991619;28;20412;-44
2023/03/01 13:13:41;;;;;;;8.63;7.43;;;;;;;;;;4992752;28;20387;-44
2023/03/01 13:16:30;;;;;;;10.10;6.87;;;;;;;;;;4992699;28;20436;-44
2023/03/01 13:19:15;;;;;;;6.87;6.17;;;;;;;;;;4994865;28;20432;-44
2023/03/01 13:21:42;;;;;;;11.53;6.53;;;;;;;;;;4991210;28;20485;-44
2023/03/01 13:24:26;;;;;;;8.07;6.60;;;;;;;;;;4984369;28;20429;-44
2023/03/01 13:27:07;;;;;;;9.10;6.50;;;;;;;;;;4991939;28;20408;-44
2023/03/01 13:29:42;;;;;;;8.20;6.70;;;;;;;;;;4992247;28;20409;-44
2023/03/01 13:32:19;;;;;;;8.60;6.73;;;;;;;;;;4991237;28;20421;-44
2023/03/01 13:34:46;;;;;;;7.50;6.07;;;;;;;;;;4989333;28;20433;-44
2023/03/01 13:37:19;;;;;;;8.53;6.40;;;;;;;;;;4992147;28;20420;-44
2023/03/01 13:39:45;;;;;;;8.10;6.17;;;;;;;;;;4992229;28;20899;-44
2023/03/01 13:42:30;;;;;;;8.23;6.43;;;;;;;;;;4991418;28;20440;-44
2023/03/01 13:44:57;;;;;;;8.63;6.47;;;;;;;;;;4992191;28;20469;-44
2023/03/01 13:47:23;;;;;;;14.00;7.00;;;;;;;;;;4992145;28;20429;-44
2023/03/01 13:49:59;;;;;;;9.27;6.80;;;;;;;;;;4992133;28;20462;-44
2023/03/01 13:52:42;;;;;;;9.10;7.60;;;;;;;;;;4990886;28;20437;-44
2023/03/01 13:55:29;;;;;;;9.00;6.40;;;;;;;;;;4984115;28;20429;-44
2023/03/01 13:57:57;;;;;;;7.70;6.90;;;;;;;;;;4990462;28;20519;-44
2023/03/01 14:00:28;;;;;;;9.17;7.00;;;;;;;;;;4991489;28;21117;-44
2023/03/01 14:03:02;;;;;;;8.87;6.47;;;;;;;;;;4991741;28;20884;-44
2023/03/01 14:05:28;;;;;;;7.13;6.33;;;;;;;;;;4991927;28;20444;-44
2023/03/01 14:07:54;;;;;;;8.37;6.60;;;;;;;;;;4991842;28;20859;-44
2023/03/01 14:10:20;;;;;;;7.67;6.20;;;;;;;;;;4991396;28;20425;-45
2023/03/01 14:12:46;;;;;;;8.97;7.03;;;;;;;;;;4991924;28;20413;-45
2023/03/01 14:15:18;;;;;;;11.20;6.17;;;;;;;;;;4992049;28;20427;-44
2023/03/01 14:17:48;;;;;;;10.10;6.40;;;;;;;;;;4991756;28;20405;-44
2023/03/01 14:20:22;;;;;;;9.70;6.40;;;;;;;;;;4991516;28;20415;-44
2023/03/01 14:22:49;;;;;;;9.90;5.93;;;;;;;;;;4991439;28;20943;-44
2023/03/01 14:25:34;;;;;;;13.30;5.70;;;;;;;;;;4991971;28;20482;-45
2023/03/01 14:28:15;;;;;;;7.80;5.80;;;;;;;;;;4991322;28;20397;-47
2023/03/01 14:30:43;;;;;;;9.13;5.80;;;;;;;;;;4992517;28;20462;-48
2023/03/01 14:33:22;;;;;;;8.47;5.27;;;;;;;;;;4989444;28;20431;-47
2023/03/01 14:36:03;;;;;;;6.67;6.00;;;;;;;;;;4992603;28;20474;-47
2023/03/01 14:38:34;;;;;;;7.60;5.90;;;;;;;;;;4992046;28;20420;-46
2023/03/01 14:41:02;;;;;;;5.93;5.33;;;;;;;;;;4991067;28;20431;-47